sensor_id;sensor_type;location;lat;lon;timestamp;P1;durP1;ratioP1;P2;durP2;ratioP2
7027;SDS011;3555;53.248;10.336;2023-04-08T00:00:42;12.03;;;8.40;;
7027;SDS011;3555;53.248;10.336;2023-04-08T00:03:09;12.17;;;7.80;;
7027;SDS011;3555;53.248;10.336;2023-04-08T00:05:36;13.20;;;8.57;;
7027;SDS011;3555;53.248;10.336;2023-04-08T00:08:04;10.30;;;8.20;;
7027;SDS011;3555;53.248;10.336;2023-04-08T00:10:31;14.33;;;7.83;;
7027;SDS011;3555;53.248;10.336;2023-04-08T00:13:00;12.10;;;8.90;;
7027;SDS011;3555;53.248;10.336;2023-04-08T00:15:26;14.73;;;8.80;;
7027;SDS011;3555;53.248;10.336;2023-04-08T00:17:53;14.20;;;8.53;;
7027;SDS011;3555;53.248;10.336;2023-04-08T00:20:21;12.20;;;8.43;;
7027;SDS011;3555;53.248;10.336;2023-04-08T00:22:49;11.50;;;7.93;;
7027;SDS011;3555;53.248;10.336;2023-04-08T00:25:16;13.43;;;8.50;;
7027;SDS011;3555;53.248;10.336;2023-04-08T00:27:43;10.70;;;7.70;;
7027;SDS011;3555;53.248;10.336;2023-04-08T00:30:11;12.73;;;8.03;;
7027;SDS011;3555;53.248;10.336;2023-04-08T00:32:39;11.27;;;8.00;;
7027;SDS011;3555;53.248;10.336;2023-04-08T00:35:06;10.57;;;7.80;;
7027;SDS011;3555;53.248;10.336;2023-04-08T00:37:34;12.00;;;7.93;;
7027;SDS011;3555;53.248;10.336;2023-04-08T00:40:01;10.57;;;7.70;;
7027;SDS011;3555;53.248;10.336;2023-04-08T00:42:28;10.90;;;7.60;;
7027;SDS011;3555;53.248;10.336;2023-04-08T00:44:55;10.70;;;7.33;;
7027;SDS011;3555;53.248;10.336;2023-04-08T00:47:24;12.13;;;7.93;;
7027;SDS011;3555;53.248;10.336;2023-04-08T00:49:51;9.57;;;7.33;;
7027;SDS011;3555;53.248;10.336;2023-04-08T00:52:17;12.63;;;7.17;;
7027;SDS011;3555;53.248;10.336;2023-04-08T00:54:44;11.70;;;7.90;;
7027;SDS011;3555;53.248;10.336;2023-04-08T00:57:11;10.27;;;7.03;;
7027;SDS011;3555;53.248;10.336;2023-04-08T00:59:38;11.43;;;7.77;;
7027;SDS011;3555;53.248;10.336;2023-04-08T01:02:07;13.30;;;8.97;;
7027;SDS011;3555;53.248;10.336;2023-04-08T01:04:46;11.93;;;8.10;;
7027;SDS011;3555;53.248;10.336;2023-04-08T01:07:21;13.17;;;7.63;;
7027;SDS011;3555;53.248;10.336;2023-04-08T01:09:53;11.77;;;7.90;;
7027;SDS011;3555;53.248;10.336;2023-04-08T01:12:23;11.13;;;7.50;;
7027;SDS011;3555;53.248;10.336;2023-04-08T01:14:54;11.37;;;7.83;;
7027;SDS011;3555;53.248;10.336;2023-04-08T01:17:28;10.40;;;7.37;;
7027;SDS011;3555;53.248;10.336;2023-04-08T01:19:58;13.57;;;8.03;;
7027;SDS011;3555;53.248;10.336;2023-04-08T01:22:31;12.13;;;7.43;;
7027;SDS011;3555;53.248;10.336;2023-04-08T01:25:04;11.53;;;7.17;;
7027;SDS011;3555;53.248;10.336;2023-04-08T01:27:35;11.53;;;7.20;;
7027;SDS011;3555;53.248;10.336;2023-04-08T01:30:04;9.63;;;7.03;;
7027;SDS011;3555;53.248;10.336;2023-04-08T01:32:33;11.60;;;7.07;;
7027;SDS011;3555;53.248;10.336;2023-04-08T01:35:00;11.40;;;7.50;;
7027;SDS011;3555;53.248;10.336;2023-04-08T01:37:28;11.20;;;6.93;;
7027;SDS011;3555;53.248;10.336;2023-04-08T01:39:56;10.63;;;7.53;;
7027;SDS011;3555;53.248;10.336;2023-04-08T01:42:25;10.43;;;6.80;;
7027;SDS011;3555;53.248;10.336;2023-04-08T01:44:56;11.67;;;7.10;;
7027;SDS011;3555;53.248;10.336;2023-04-08T01:47:25;10.13;;;7.13;;
7027;SDS011;3555;53.248;10.336;2023-04-08T01:49:54;11.37;;;7.57;;
7027;SDS011;3555;53.248;10.336;2023-04-08T01:52:22;10.57;;;7.57;;
7027;SDS011;3555;53.248;10.336;2023-04-08T01:54:52;13.37;;;7.53;;
7027;SDS011;3555;53.248;10.336;2023-04-08T01:57:21;10.10;;;6.67;;
7027;SDS011;3555;53.248;10.336;2023-04-08T01:59:51;10.23;;;7.27;;
7027;SDS011;3555;53.248;10.336;2023-04-08T02:02:23;11.27;;;7.63;;
7027;SDS011;3555;53.248;10.336;2023-04-08T02:04:52;10.10;;;7.27;;
7027;SDS011;3555;53.248;10.336;2023-04-08T02:07:19;12.77;;;7.60;;
7027;SDS011;3555;53.248;10.336;2023-04-08T02:09:46;9.83;;;7.10;;
7027;SDS011;3555;53.248;10.336;2023-04-08T02:12:13;11.87;;;7.90;;
7027;SDS011;3555;53.248;10.336;2023-04-08T02:14:40;9.40;;;7.47;;
7027;SDS011;3555;53.248;10.336;2023-04-08T02:17:08;12.63;;;7.60;;
7027;SDS011;3555;53.248;10.336;2023-04-08T02:19:41;11.13;;;7.30;;
7027;SDS011;3555;53.248;10.336;2023-04-08T02:22:16;12.17;;;7.70;;
7027;SDS011;3555;53.248;10.336;2023-04-08T02:24:45;11.33;;;7.57;;
7027;SDS011;3555;53.248;10.336;2023-04-08T02:27:13;11.00;;;7.23;;
7027;SDS011;3555;53.248;10.336;2023-04-08T02:29:41;9.43;;;6.60;;
7027;SDS011;3555;53.248;10.336;2023-04-08T02:32:10;12.67;;;7.00;;
7027;SDS011;3555;53.248;10.336;2023-04-08T02:34:39;12.67;;;8.00;;
7027;SDS011;3555;53.248;10.336;2023-04-08T02:37:08;11.30;;;7.90;;
7027;SDS011;3555;53.248;10.336;2023-04-08T02:39:35;14.50;;;7.93;;
7027;SDS011;3555;53.248;10.336;2023-04-08T02:42:02;11.90;;;7.77;;
7027;SDS011;3555;53.248;10.336;2023-04-08T02:44:30;10.97;;;7.40;;
7027;SDS011;3555;53.248;10.336;2023-04-08T02:46:56;12.47;;;8.17;;
7027;SDS011;3555;53.248;10.336;2023-04-08T02:49:23;10.77;;;7.83;;
7027;SDS011;3555;53.248;10.336;2023-04-08T02:51:52;13.43;;;7.80;;
7027;SDS011;3555;53.248;10.336;2023-04-08T02:54:19;10.33;;;7.43;;
7027;SDS011;3555;53.248;10.336;2023-04-08T02:56:45;10.53;;;7.43;;
7027;SDS011;3555;53.248;10.336;2023-04-08T02:59:12;11.70;;;8.07;;
7027;SDS011;3555;53.248;10.336;2023-04-08T03:01:39;10.77;;;7.20;;
7027;SDS011;3555;53.248;10.336;2023-04-08T03:04:06;11.70;;;8.20;;
7027;SDS011;3555;53.248;10.336;2023-04-08T03:06:33;12.03;;;8.70;;
7027;SDS011;3555;53.248;10.336;2023-04-08T03:09:01;13.83;;;8.80;;
7027;SDS011;3555;53.248;10.336;2023-04-08T03:11:29;11.77;;;8.97;;
7027;SDS011;3555;53.248;10.336;2023-04-08T03:13:56;11.57;;;8.10;;
7027;SDS011;3555;53.248;10.336;2023-04-08T03:16:24;12.47;;;8.50;;
7027;SDS011;3555;53.248;10.336;2023-04-08T03:18:51;12.20;;;9.13;;
7027;SDS011;3555;53.248;10.336;2023-04-08T03:21:18;14.67;;;9.17;;
7027;SDS011;3555;53.248;10.336;2023-04-08T03:23:45;12.23;;;8.53;;
7027;SDS011;3555;53.248;10.336;2023-04-08T03:26:13;12.13;;;8.27;;
7027;SDS011;3555;53.248;10.336;2023-04-08T03:28:40;13.03;;;7.70;;
7027;SDS011;3555;53.248;10.336;2023-04-08T03:31:06;15.63;;;8.67;;
7027;SDS011;3555;53.248;10.336;2023-04-08T03:33:33;12.40;;;8.03;;
7027;SDS011;3555;53.248;10.336;2023-04-08T03:36:00;14.63;;;9.03;;
7027;SDS011;3555;53.248;10.336;2023-04-08T03:38:27;11.07;;;7.33;;
7027;SDS011;3555;53.248;10.336;2023-04-08T03:40:54;14.27;;;8.10;;
7027;SDS011;3555;53.248;10.336;2023-04-08T03:43:22;14.27;;;7.97;;
7027;SDS011;3555;53.248;10.336;2023-04-08T03:45:50;11.70;;;8.03;;
7027;SDS011;3555;53.248;10.336;2023-04-08T03:48:17;13.67;;;7.63;;
7027;SDS011;3555;53.248;10.336;2023-04-08T03:50:44;15.13;;;7.90;;
7027;SDS011;3555;53.248;10.336;2023-04-08T03:53:10;10.60;;;7.80;;
7027;SDS011;3555;53.248;10.336;2023-04-08T03:55:37;15.37;;;8.13;;
7027;SDS011;3555;53.248;10.336;2023-04-08T03:58:04;11.73;;;7.70;;
7027;SDS011;3555;53.248;10.336;2023-04-08T04:00:33;12.23;;;8.43;;
7027;SDS011;3555;53.248;10.336;2023-04-08T04:03:01;12.97;;;8.60;;
7027;SDS011;3555;53.248;10.336;2023-04-08T04:05:28;13.10;;;8.40;;
7027;SDS011;3555;53.248;10.336;2023-04-08T04:07:55;13.73;;;8.30;;
7027;SDS011;3555;53.248;10.336;2023-04-08T04:10:22;14.50;;;8.70;;
7027;SDS011;3555;53.248;10.336;2023-04-08T04:12:49;11.90;;;8.20;;
7027;SDS011;3555;53.248;10.336;2023-04-08T04:15:17;12.00;;;8.37;;
7027;SDS011;3555;53.248;10.336;2023-04-08T04:17:46;12.07;;;8.70;;
7027;SDS011;3555;53.248;10.336;2023-04-08T04:20:14;13.00;;;8.60;;
7027;SDS011;3555;53.248;10.336;2023-04-08T04:22:41;14.60;;;9.60;;
7027;SDS011;3555;53.248;10.336;2023-04-08T04:25:08;15.43;;;9.00;;
7027;SDS011;3555;53.248;10.336;2023-04-08T04:27:35;15.70;;;9.47;;
7027;SDS011;3555;53.248;10.336;2023-04-08T04:30:02;13.43;;;9.30;;
7027;SDS011;3555;53.248;10.336;2023-04-08T04:32:31;14.83;;;9.90;;
7027;SDS011;3555;53.248;10.336;2023-04-08T04:34:59;12.70;;;8.90;;
7027;SDS011;3555;53.248;10.336;2023-04-08T04:37:26;12.80;;;8.67;;
7027;SDS011;3555;53.248;10.336;2023-04-08T04:39:53;15.43;;;10.07;;
7027;SDS011;3555;53.248;10.336;2023-04-08T04:42:20;13.53;;;10.13;;
7027;SDS011;3555;53.248;10.336;2023-04-08T04:44:47;11.80;;;8.57;;
7027;SDS011;3555;53.248;10.336;2023-04-08T04:47:14;14.80;;;10.00;;
7027;SDS011;3555;53.248;10.336;2023-04-08T04:49:41;14.27;;;9.70;;
7027;SDS011;3555;53.248;10.336;2023-04-08T04:52:11;17.20;;;10.57;;
7027;SDS011;3555;53.248;10.336;2023-04-08T04:54:38;16.57;;;11.17;;
7027;SDS011;3555;53.248;10.336;2023-04-08T04:57:05;14.13;;;10.20;;
7027;SDS011;3555;53.248;10.336;2023-04-08T04:59:32;14.80;;;10.67;;
7027;SDS011;3555;53.248;10.336;2023-04-08T05:01:59;17.17;;;11.83;;
7027;SDS011;3555;53.248;10.336;2023-04-08T05:04:26;15.43;;;11.03;;
7027;SDS011;3555;53.248;10.336;2023-04-08T05:06:53;15.80;;;11.13;;
7027;SDS011;3555;53.248;10.336;2023-04-08T05:09:21;16.87;;;11.80;;
7027;SDS011;3555;53.248;10.336;2023-04-08T05:11:48;15.40;;;10.67;;
7027;SDS011;3555;53.248;10.336;2023-04-08T05:14:15;19.80;;;12.10;;
7027;SDS011;3555;53.248;10.336;2023-04-08T05:16:42;20.20;;;11.93;;
7027;SDS011;3555;53.248;10.336;2023-04-08T05:19:09;19.00;;;13.00;;
7027;SDS011;3555;53.248;10.336;2023-04-08T05:21:36;20.90;;;12.57;;
7027;SDS011;3555;53.248;10.336;2023-04-08T05:24:03;14.83;;;10.43;;
7027;SDS011;3555;53.248;10.336;2023-04-08T05:26:31;17.40;;;10.23;;
7027;SDS011;3555;53.248;10.336;2023-04-08T05:28:58;16.23;;;10.83;;
7027;SDS011;3555;53.248;10.336;2023-04-08T05:31:25;16.97;;;11.30;;
7027;SDS011;3555;53.248;10.336;2023-04-08T05:33:52;22.73;;;11.63;;
7027;SDS011;3555;53.248;10.336;2023-04-08T05:36:19;18.00;;;11.87;;
7027;SDS011;3555;53.248;10.336;2023-04-08T05:38:46;15.17;;;10.60;;
7027;SDS011;3555;53.248;10.336;2023-04-08T05:41:13;18.13;;;11.40;;
7027;SDS011;3555;53.248;10.336;2023-04-08T05:43:41;18.40;;;11.37;;
7027;SDS011;3555;53.248;10.336;2023-04-08T05:46:08;17.03;;;11.53;;
7027;SDS011;3555;53.248;10.336;2023-04-08T05:48:35;16.40;;;11.23;;
7027;SDS011;3555;53.248;10.336;2023-04-08T05:51:03;17.20;;;11.27;;
7027;SDS011;3555;53.248;10.336;2023-04-08T05:53:31;17.67;;;11.50;;
7027;SDS011;3555;53.248;10.336;2023-04-08T05:55:57;17.10;;;11.20;;
7027;SDS011;3555;53.248;10.336;2023-04-08T05:58:24;14.93;;;10.60;;
7027;SDS011;3555;53.248;10.336;2023-04-08T06:00:53;15.20;;;10.20;;
7027;SDS011;3555;53.248;10.336;2023-04-08T06:03:20;13.57;;;10.57;;
7027;SDS011;3555;53.248;10.336;2023-04-08T06:05:47;17.33;;;10.83;;
7027;SDS011;3555;53.248;10.336;2023-04-08T06:08:14;16.50;;;11.03;;
7027;SDS011;3555;53.248;10.336;2023-04-08T06:10:47;15.67;;;10.70;;
7027;SDS011;3555;53.248;10.336;2023-04-08T06:13:14;16.30;;;10.10;;
7027;SDS011;3555;53.248;10.336;2023-04-08T06:15:41;16.03;;;11.30;;
7027;SDS011;3555;53.248;10.336;2023-04-08T06:18:10;15.97;;;11.37;;
7027;SDS011;3555;53.248;10.336;2023-04-08T06:20:36;20.70;;;11.83;;
7027;SDS011;3555;53.248;10.336;2023-04-08T06:23:03;19.20;;;11.27;;
7027;SDS011;3555;53.248;10.336;2023-04-08T06:25:31;16.53;;;10.67;;
7027;SDS011;3555;53.248;10.336;2023-04-08T06:27:58;19.10;;;10.97;;
7027;SDS011;3555;53.248;10.336;2023-04-08T06:30:25;19.30;;;12.47;;
7027;SDS011;3555;53.248;10.336;2023-04-08T06:32:52;15.53;;;11.27;;
7027;SDS011;3555;53.248;10.336;2023-04-08T06:35:20;16.63;;;11.17;;
7027;SDS011;3555;53.248;10.336;2023-04-08T06:37:47;20.07;;;11.97;;
7027;SDS011;3555;53.248;10.336;2023-04-08T06:40:13;18.90;;;11.10;;
7027;SDS011;3555;53.248;10.336;2023-04-08T06:42:40;16.77;;;11.17;;
7027;SDS011;3555;53.248;10.336;2023-04-08T06:45:09;19.40;;;12.63;;
7027;SDS011;3555;53.248;10.336;2023-04-08T06:47:36;18.63;;;12.03;;
7027;SDS011;3555;53.248;10.336;2023-04-08T06:50:03;20.07;;;12.43;;
7027;SDS011;3555;53.248;10.336;2023-04-08T06:52:32;18.47;;;12.37;;
7027;SDS011;3555;53.248;10.336;2023-04-08T06:54:59;18.73;;;11.33;;
7027;SDS011;3555;53.248;10.336;2023-04-08T06:57:26;17.53;;;12.23;;
7027;SDS011;3555;53.248;10.336;2023-04-08T06:59:53;17.20;;;11.57;;
7027;SDS011;3555;53.248;10.336;2023-04-08T07:02:20;19.23;;;12.13;;
7027;SDS011;3555;53.248;10.336;2023-04-08T07:04:47;19.27;;;11.37;;
7027;SDS011;3555;53.248;10.336;2023-04-08T07:07:14;22.10;;;12.27;;
7027;SDS011;3555;53.248;10.336;2023-04-08T07:09:42;19.20;;;11.67;;
7027;SDS011;3555;53.248;10.336;2023-04-08T07:12:10;18.30;;;11.77;;
7027;SDS011;3555;53.248;10.336;2023-04-08T07:14:37;22.67;;;12.60;;
7027;SDS011;3555;53.248;10.336;2023-04-08T07:17:04;20.10;;;12.30;;
7027;SDS011;3555;53.248;10.336;2023-04-08T07:19:31;21.53;;;12.77;;
7027;SDS011;3555;53.248;10.336;2023-04-08T07:21:58;19.33;;;11.93;;
7027;SDS011;3555;53.248;10.336;2023-04-08T07:24:25;19.07;;;12.03;;
7027;SDS011;3555;53.248;10.336;2023-04-08T07:26:53;18.53;;;11.53;;
7027;SDS011;3555;53.248;10.336;2023-04-08T07:29:20;19.80;;;11.87;;
7027;SDS011;3555;53.248;10.336;2023-04-08T07:31:47;18.30;;;11.80;;
7027;SDS011;3555;53.248;10.336;2023-04-08T07:34:15;16.70;;;11.17;;
7027;SDS011;3555;53.248;10.336;2023-04-08T07:36:42;19.07;;;11.97;;
7027;SDS011;3555;53.248;10.336;2023-04-08T07:39:09;18.40;;;10.97;;
7027;SDS011;3555;53.248;10.336;2023-04-08T07:41:36;14.90;;;10.23;;
7027;SDS011;3555;53.248;10.336;2023-04-08T07:44:05;14.20;;;9.30;;
7027;SDS011;3555;53.248;10.336;2023-04-08T07:46:35;18.00;;;10.13;;
7027;SDS011;3555;53.248;10.336;2023-04-08T07:49:02;17.20;;;11.13;;
7027;SDS011;3555;53.248;10.336;2023-04-08T07:51:29;17.57;;;11.40;;
7027;SDS011;3555;53.248;10.336;2023-04-08T07:53:56;14.73;;;10.67;;
7027;SDS011;3555;53.248;10.336;2023-04-08T07:56:23;23.57;;;12.67;;
7027;SDS011;3555;53.248;10.336;2023-04-08T07:58:50;19.60;;;11.87;;
7027;SDS011;3555;53.248;10.336;2023-04-08T08:01:19;21.90;;;11.87;;
7027;SDS011;3555;53.248;10.336;2023-04-08T08:03:48;20.20;;;11.67;;
7027;SDS011;3555;53.248;10.336;2023-04-08T08:06:15;20.67;;;12.57;;
7027;SDS011;3555;53.248;10.336;2023-04-08T08:08:42;22.07;;;12.57;;
7027;SDS011;3555;53.248;10.336;2023-04-08T08:11:09;17.63;;;11.20;;
7027;SDS011;3555;53.248;10.336;2023-04-08T08:13:36;17.03;;;11.97;;
7027;SDS011;3555;53.248;10.336;2023-04-08T08:16:03;19.83;;;11.60;;
7027;SDS011;3555;53.248;10.336;2023-04-08T08:18:34;17.57;;;11.27;;
7027;SDS011;3555;53.248;10.336;2023-04-08T08:21:01;20.07;;;11.73;;
7027;SDS011;3555;53.248;10.336;2023-04-08T08:23:28;23.40;;;11.57;;
7027;SDS011;3555;53.248;10.336;2023-04-08T08:25:58;16.70;;;10.77;;
7027;SDS011;3555;53.248;10.336;2023-04-08T08:28:25;18.87;;;11.83;;
7027;SDS011;3555;53.248;10.336;2023-04-08T08:30:52;16.20;;;10.87;;
7027;SDS011;3555;53.248;10.336;2023-04-08T08:33:19;17.90;;;11.37;;
7027;SDS011;3555;53.248;10.336;2023-04-08T08:35:48;19.77;;;12.00;;
7027;SDS011;3555;53.248;10.336;2023-04-08T08:38:15;15.33;;;11.23;;
7027;SDS011;3555;53.248;10.336;2023-04-08T08:40:41;18.80;;;12.03;;
7027;SDS011;3555;53.248;10.336;2023-04-08T08:43:09;16.23;;;10.37;;
7027;SDS011;3555;53.248;10.336;2023-04-08T08:45:37;16.73;;;11.27;;
7027;SDS011;3555;53.248;10.336;2023-04-08T08:48:05;16.40;;;10.27;;
7027;SDS011;3555;53.248;10.336;2023-04-08T08:50:32;17.03;;;10.90;;
7027;SDS011;3555;53.248;10.336;2023-04-08T08:53:01;18.93;;;12.10;;
7027;SDS011;3555;53.248;10.336;2023-04-08T08:55:29;19.23;;;10.83;;
7027;SDS011;3555;53.248;10.336;2023-04-08T08:57:57;19.83;;;11.43;;
7027;SDS011;3555;53.248;10.336;2023-04-08T09:00:31;21.80;;;12.03;;
7027;SDS011;3555;53.248;10.336;2023-04-08T09:03:12;18.90;;;12.97;;
7027;SDS011;3555;53.248;10.336;2023-04-08T09:05:46;20.13;;;11.80;;
7027;SDS011;3555;53.248;10.336;2023-04-08T09:08:25;20.73;;;12.80;;
7027;SDS011;3555;53.248;10.336;2023-04-08T09:10:53;25.20;;;14.03;;
7027;SDS011;3555;53.248;10.336;2023-04-08T09:13:21;19.87;;;12.27;;
7027;SDS011;3555;53.248;10.336;2023-04-08T09:16:01;23.53;;;13.30;;
7027;SDS011;3555;53.248;10.336;2023-04-08T09:18:29;19.03;;;12.83;;
7027;SDS011;3555;53.248;10.336;2023-04-08T09:20:57;21.27;;;13.23;;
7027;SDS011;3555;53.248;10.336;2023-04-08T09:23:33;20.73;;;13.30;;
7027;SDS011;3555;53.248;10.336;2023-04-08T09:26:06;22.10;;;14.00;;
7027;SDS011;3555;53.248;10.336;2023-04-08T09:28:33;20.57;;;12.63;;
7027;SDS011;3555;53.248;10.336;2023-04-08T09:31:00;16.20;;;11.50;;
7027;SDS011;3555;53.248;10.336;2023-04-08T09:33:42;20.67;;;11.80;;
7027;SDS011;3555;53.248;10.336;2023-04-08T09:36:09;19.77;;;11.83;;
7027;SDS011;3555;53.248;10.336;2023-04-08T09:38:38;18.20;;;11.50;;
7027;SDS011;3555;53.248;10.336;2023-04-08T09:41:05;19.73;;;11.00;;
7027;SDS011;3555;53.248;10.336;2023-04-08T09:43:33;18.07;;;11.37;;
7027;SDS011;3555;53.248;10.336;2023-04-08T09:46:06;19.90;;;11.73;;
7027;SDS011;3555;53.248;10.336;2023-04-08T09:48:38;20.33;;;11.60;;
7027;SDS011;3555;53.248;10.336;2023-04-08T09:51:10;20.63;;;12.17;;
7027;SDS011;3555;53.248;10.336;2023-04-08T09:53:44;18.07;;;11.10;;
7027;SDS011;3555;53.248;10.336;2023-04-08T09:56:13;21.27;;;11.60;;
7027;SDS011;3555;53.248;10.336;2023-04-08T09:58:42;19.93;;;12.27;;
7027;SDS011;3555;53.248;10.336;2023-04-08T10:01:15;19.57;;;11.63;;
7027;SDS011;3555;53.248;10.336;2023-04-08T10:03:47;23.33;;;12.63;;
7027;SDS011;3555;53.248;10.336;2023-04-08T10:06:17;23.60;;;12.87;;
7027;SDS011;3555;53.248;10.336;2023-04-08T10:08:47;27.77;;;14.17;;
7027;SDS011;3555;53.248;10.336;2023-04-08T10:11:14;22.73;;;13.77;;
7027;SDS011;3555;53.248;10.336;2023-04-08T10:13:42;19.33;;;13.50;;
7027;SDS011;3555;53.248;10.336;2023-04-08T10:16:19;17.67;;;11.97;;
7027;SDS011;3555;53.248;10.336;2023-04-08T10:18:48;21.67;;;12.80;;
7027;SDS011;3555;53.248;10.336;2023-04-08T10:21:32;18.90;;;11.70;;
7027;SDS011;3555;53.248;10.336;2023-04-08T10:24:02;15.10;;;11.20;;
7027;SDS011;3555;53.248;10.336;2023-04-08T10:26:36;17.10;;;10.53;;
7027;SDS011;3555;53.248;10.336;2023-04-08T10:32:08;20.17;;;11.67;;
7027;SDS011;3555;53.248;10.336;2023-04-08T10:34:54;17.93;;;11.00;;
7027;SDS011;3555;53.248;10.336;2023-04-08T10:37:21;19.80;;;11.97;;
7027;SDS011;3555;53.248;10.336;2023-04-08T10:39:49;17.20;;;10.93;;
7027;SDS011;3555;53.248;10.336;2023-04-08T10:42:19;18.93;;;11.23;;
7027;SDS011;3555;53.248;10.336;2023-04-08T10:44:51;19.30;;;11.23;;
7027;SDS011;3555;53.248;10.336;2023-04-08T10:47:24;20.10;;;11.80;;
7027;SDS011;3555;53.248;10.336;2023-04-08T10:49:51;19.23;;;11.70;;
7027;SDS011;3555;53.248;10.336;2023-04-08T10:52:18;17.20;;;10.70;;
7027;SDS011;3555;53.248;10.336;2023-04-08T10:54:45;16.33;;;11.67;;
7027;SDS011;3555;53.248;10.336;2023-04-08T10:57:15;19.10;;;11.43;;
7027;SDS011;3555;53.248;10.336;2023-04-08T10:59:48;17.73;;;11.83;;
7027;SDS011;3555;53.248;10.336;2023-04-08T11:02:15;18.00;;;11.00;;
7027;SDS011;3555;53.248;10.336;2023-04-08T11:04:42;17.70;;;11.13;;
7027;SDS011;3555;53.248;10.336;2023-04-08T11:07:09;18.20;;;12.27;;
7027;SDS011;3555;53.248;10.336;2023-04-08T11:09:36;15.27;;;10.30;;
7027;SDS011;3555;53.248;10.336;2023-04-08T11:12:05;19.13;;;11.93;;
7027;SDS011;3555;53.248;10.336;2023-04-08T11:14:33;19.50;;;11.60;;
7027;SDS011;3555;53.248;10.336;2023-04-08T11:17:02;17.40;;;11.83;;
7027;SDS011;3555;53.248;10.336;2023-04-08T11:19:30;17.17;;;10.73;;
7027;SDS011;3555;53.248;10.336;2023-04-08T11:21:57;19.03;;;10.73;;
7027;SDS011;3555;53.248;10.336;2023-04-08T11:24:25;15.97;;;10.77;;
7027;SDS011;3555;53.248;10.336;2023-04-08T11:26:52;15.13;;;10.67;;
7027;SDS011;3555;53.248;10.336;2023-04-08T11:29:21;18.03;;;11.33;;
7027;SDS011;3555;53.248;10.336;2023-04-08T11:31:49;17.73;;;11.20;;
7027;SDS011;3555;53.248;10.336;2023-04-08T11:34:20;16.53;;;11.03;;
7027;SDS011;3555;53.248;10.336;2023-04-08T11:36:48;17.47;;;11.07;;
7027;SDS011;3555;53.248;10.336;2023-04-08T11:39:15;18.20;;;11.07;;
7027;SDS011;3555;53.248;10.336;2023-04-08T11:41:42;17.63;;;12.03;;
7027;SDS011;3555;53.248;10.336;2023-04-08T11:44:09;20.97;;;12.27;;
7027;SDS011;3555;53.248;10.336;2023-04-08T11:46:36;21.80;;;12.20;;
7027;SDS011;3555;53.248;10.336;2023-04-08T11:49:06;16.23;;;10.70;;
7027;SDS011;3555;53.248;10.336;2023-04-08T11:51:34;19.00;;;11.50;;
7027;SDS011;3555;53.248;10.336;2023-04-08T11:54:24;19.00;;;11.20;;
7027;SDS011;3555;53.248;10.336;2023-04-08T11:56:52;18.97;;;11.70;;
7027;SDS011;3555;53.248;10.336;2023-04-08T11:59:20;19.47;;;11.03;;
7027;SDS011;3555;53.248;10.336;2023-04-08T12:01:47;16.07;;;11.60;;
7027;SDS011;3555;53.248;10.336;2023-04-08T12:04:15;19.30;;;11.33;;
7027;SDS011;3555;53.248;10.336;2023-04-08T12:06:42;16.77;;;11.47;;
7027;SDS011;3555;53.248;10.336;2023-04-08T12:09:11;18.50;;;11.27;;
7027;SDS011;3555;53.248;10.336;2023-04-08T12:11:38;17.83;;;12.23;;
7027;SDS011;3555;53.248;10.336;2023-04-08T12:14:04;18.33;;;11.57;;
7027;SDS011;3555;53.248;10.336;2023-04-08T12:16:31;20.60;;;13.10;;
7027;SDS011;3555;53.248;10.336;2023-04-08T12:18:58;16.73;;;10.70;;
7027;SDS011;3555;53.248;10.336;2023-04-08T12:21:26;16.37;;;10.77;;
7027;SDS011;3555;53.248;10.336;2023-04-08T12:23:53;16.40;;;11.10;;
7027;SDS011;3555;53.248;10.336;2023-04-08T12:26:20;18.87;;;10.80;;
7027;SDS011;3555;53.248;10.336;2023-04-08T12:28:48;19.70;;;11.17;;
7027;SDS011;3555;53.248;10.336;2023-04-08T12:31:15;17.13;;;11.37;;
7027;SDS011;3555;53.248;10.336;2023-04-08T12:33:42;17.87;;;11.73;;
7027;SDS011;3555;53.248;10.336;2023-04-08T12:36:09;20.23;;;11.83;;
7027;SDS011;3555;53.248;10.336;2023-04-08T12:38:37;18.07;;;11.73;;
7027;SDS011;3555;53.248;10.336;2023-04-08T12:41:04;18.27;;;11.30;;
7027;SDS011;3555;53.248;10.336;2023-04-08T12:43:31;18.33;;;10.27;;
7027;SDS011;3555;53.248;10.336;2023-04-08T12:45:58;16.20;;;10.80;;
7027;SDS011;3555;53.248;10.336;2023-04-08T12:48:26;16.97;;;11.10;;
7027;SDS011;3555;53.248;10.336;2023-04-08T12:50:53;17.00;;;10.60;;
7027;SDS011;3555;53.248;10.336;2023-04-08T12:53:20;17.33;;;11.17;;
7027;SDS011;3555;53.248;10.336;2023-04-08T12:55:48;17.60;;;10.90;;
7027;SDS011;3555;53.248;10.336;2023-04-08T12:58:15;18.17;;;10.20;;
7027;SDS011;3555;53.248;10.336;2023-04-08T13:00:42;17.53;;;10.07;;
7027;SDS011;3555;53.248;10.336;2023-04-08T13:03:10;16.97;;;9.97;;
7027;SDS011;3555;53.248;10.336;2023-04-08T13:05:38;17.27;;;10.70;;
7027;SDS011;3555;53.248;10.336;2023-04-08T13:08:05;18.53;;;10.50;;
7027;SDS011;3555;53.248;10.336;2023-04-08T13:10:31;17.37;;;10.83;;
7027;SDS011;3555;53.248;10.336;2023-04-08T13:13:00;18.37;;;11.10;;
7027;SDS011;3555;53.248;10.336;2023-04-08T13:15:27;18.97;;;10.53;;
7027;SDS011;3555;53.248;10.336;2023-04-08T13:17:53;19.93;;;10.23;;
7027;SDS011;3555;53.248;10.336;2023-04-08T13:20:21;19.50;;;12.20;;
7027;SDS011;3555;53.248;10.336;2023-04-08T13:22:49;21.33;;;11.83;;
7027;SDS011;3555;53.248;10.336;2023-04-08T13:25:16;16.83;;;10.80;;
7027;SDS011;3555;53.248;10.336;2023-04-08T13:27:43;20.23;;;11.17;;
7027;SDS011;3555;53.248;10.336;2023-04-08T13:30:12;17.43;;;11.83;;
7027;SDS011;3555;53.248;10.336;2023-04-08T13:32:39;20.00;;;11.90;;
7027;SDS011;3555;53.248;10.336;2023-04-08T13:35:06;15.20;;;10.77;;
7027;SDS011;3555;53.248;10.336;2023-04-08T13:37:34;19.30;;;11.87;;
7027;SDS011;3555;53.248;10.336;2023-04-08T13:40:01;16.90;;;11.07;;
7027;SDS011;3555;53.248;10.336;2023-04-08T13:42:28;15.70;;;11.50;;
7027;SDS011;3555;53.248;10.336;2023-04-08T13:44:55;19.20;;;11.60;;
7027;SDS011;3555;53.248;10.336;2023-04-08T13:47:23;21.00;;;11.93;;
7027;SDS011;3555;53.248;10.336;2023-04-08T13:49:51;18.87;;;11.80;;
7027;SDS011;3555;53.248;10.336;2023-04-08T13:52:18;17.83;;;10.93;;
7027;SDS011;3555;53.248;10.336;2023-04-08T13:54:44;16.03;;;10.13;;
7027;SDS011;3555;53.248;10.336;2023-04-08T13:57:11;15.77;;;10.73;;
7027;SDS011;3555;53.248;10.336;2023-04-08T13:59:38;16.23;;;10.60;;
7027;SDS011;3555;53.248;10.336;2023-04-08T14:02:05;13.77;;;9.70;;
7027;SDS011;3555;53.248;10.336;2023-04-08T14:04:33;17.33;;;10.43;;
7027;SDS011;3555;53.248;10.336;2023-04-08T14:07:00;15.00;;;10.97;;
7027;SDS011;3555;53.248;10.336;2023-04-08T14:09:27;16.67;;;10.40;;
7027;SDS011;3555;53.248;10.336;2023-04-08T14:11:54;20.77;;;10.67;;
7027;SDS011;3555;53.248;10.336;2023-04-08T14:14:23;14.77;;;10.20;;
7027;SDS011;3555;53.248;10.336;2023-04-08T14:16:50;16.03;;;10.70;;
7027;SDS011;3555;53.248;10.336;2023-04-08T14:19:16;13.37;;;9.23;;
7027;SDS011;3555;53.248;10.336;2023-04-08T14:21:45;14.13;;;10.33;;
7027;SDS011;3555;53.248;10.336;2023-04-08T14:24:11;16.33;;;10.40;;
7027;SDS011;3555;53.248;10.336;2023-04-08T14:26:38;23.00;;;11.20;;
7027;SDS011;3555;53.248;10.336;2023-04-08T14:29:05;15.67;;;10.20;;
7027;SDS011;3555;53.248;10.336;2023-04-08T14:31:32;15.77;;;10.27;;
7027;SDS011;3555;53.248;10.336;2023-04-08T14:34:00;15.13;;;9.73;;
7027;SDS011;3555;53.248;10.336;2023-04-08T14:36:27;13.97;;;9.23;;
7027;SDS011;3555;53.248;10.336;2023-04-08T14:38:57;13.40;;;9.83;;
7027;SDS011;3555;53.248;10.336;2023-04-08T14:41:24;16.50;;;9.73;;
7027;SDS011;3555;53.248;10.336;2023-04-08T14:43:51;15.57;;;10.50;;
7027;SDS011;3555;53.248;10.336;2023-04-08T14:46:18;15.10;;;10.03;;